Time;durP1;ratioP1;P1;durP2;ratioP2;P2;SDS_P1;SDS_P2;PMS_P1;PMS_P2;Temp;Humidity;BMP_temperature;BMP_pressure;BME280_temperature;BME280_humidity;BME280_pressure;Samples;Min_cycle;Max_cycle;Signal;HPM_P1;HPM_P2
2023/03/08 00:02:15;;;;;;;3.37;1.07;;;1.80;99.90;;;;;;7826175;28;20984;-92
2023/03/08 00:06:07;;;;;;;1.17;0.80;;;2.00;99.90;;;;;;7827978;28;20224;-92
2023/03/08 00:09:53;;;;;;;1.43;1.00;;;2.00;99.90;;;;;;7822313;28;20695;-92
2023/03/08 00:13:39;;;;;;;4.23;1.30;;;2.00;99.90;;;;;;7834605;28;20599;-92
2023/03/08 00:17:25;;;;;;;1.10;0.90;;;1.90;99.90;;;;;;7830615;28;20189;-91
2023/03/08 00:21:14;;;;;;;0.73;0.73;;;1.90;99.90;;;;;;7829599;28;20193;-91
2023/03/08 00:24:59;;;;;;;1.43;0.80;;;1.90;99.90;;;;;;7839303;28;20213;-92
2023/03/08 00:28:46;;;;;;;1.00;0.90;;;1.90;99.90;;;;;;7822966;28;20207;-92
2023/03/08 00:32:32;;;;;;;1.00;0.90;;;1.70;99.90;;;;;;7819513;28;20213;-92
2023/03/08 00:36:18;;;;;;;1.27;0.80;;;1.80;99.90;;;;;;7819614;28;20189;-92
2023/03/08 00:40:04;;;;;;;0.60;0.53;;;1.70;99.90;;;;;;7841237;28;20200;-92
2023/03/08 00:43:50;;;;;;;2.77;0.90;;;1.60;99.90;;;;;;7813498;28;20210;-92
2023/03/08 00:47:37;;;;;;;1.20;0.90;;;1.60;99.90;;;;;;7816601;28;20729;-92
2023/03/08 00:51:22;;;;;;;0.80;0.80;;;1.70;99.90;;;;;;7818409;28;20186;-92
2023/03/08 00:55:09;;;;;;;0.80;0.80;;;1.70;99.90;;;;;;7842236;28;20213;-92
2023/03/08 00:58:54;;;;;;;1.80;0.90;;;1.80;99.90;;;;;;7817635;28;20183;-91
2023/03/08 01:02:40;;;;;;;0.80;0.80;;;1.80;99.90;;;;;;7817549;28;20651;-91
2023/03/08 01:06:25;;;;;;;1.43;1.00;;;1.90;99.90;;;;;;7851886;28;20189;-91
2023/03/08 01:10:12;;;;;;;1.10;1.00;;;1.70;99.90;;;;;;7830534;28;20196;-93
2023/03/08 01:13:58;;;;;;;1.87;0.93;;;1.70;99.90;;;;;;7822179;28;20268;-93
2023/03/08 01:17:43;;;;;;;1.10;1.00;;;1.70;99.90;;;;;;7831019;28;20667;-91
2023/03/08 01:21:30;;;;;;;0.90;0.77;;;1.70;99.90;;;;;;7817758;28;20547;-91
2023/03/08 01:25:16;;;;;;;1.37;0.97;;;1.80;99.90;;;;;;7820976;28;20255;-92
2023/03/08 01:29:28;;;;;;;1.53;1.13;;;1.80;99.90;;;;;;7871498;28;20170;-89
2023/03/08 01:33:13;;;;;;;1.23;1.10;;;1.80;99.90;;;;;;7841915;28;20203;-91
2023/03/08 01:36:59;;;;;;;1.77;1.07;;;1.80;99.90;;;;;;7835377;28;20189;-92
2023/03/08 01:40:45;;;;;;;1.30;1.10;;;1.80;99.90;;;;;;7814124;28;20179;-92
2023/03/08 01:44:58;;;;;;;1.80;1.40;;;1.80;99.90;;;;;;7813791;28;20206;-92
2023/03/08 01:49:00;;;;;;;1.57;1.40;;;1.80;99.90;;;;;;7813876;28;20185;-92
2023/03/08 01:52:51;;;;;;;1.37;1.20;;;1.90;99.90;;;;;;7815147;28;20435;-92
2023/03/08 01:56:39;;;;;;;3.30;1.50;;;1.80;99.90;;;;;;7813791;28;20185;-92
2023/03/08 02:00:25;;;;;;;3.17;1.90;;;1.60;99.90;;;;;;7813467;28;20178;-92
2023/03/08 02:04:11;;;;;;;1.60;1.50;;;1.60;99.90;;;;;;7812858;28;20297;-91
2023/03/08 02:07:57;;;;;;;3.37;1.80;;;1.60;99.90;;;;;;7813136;28;20183;-92
2023/03/08 02:11:44;;;;;;;3.20;1.90;;;1.60;99.90;;;;;;7811846;28;20279;-92
2023/03/08 02:15:30;;;;;;;2.87;1.80;;;1.70;99.90;;;;;;7812378;28;20202;-92
2023/03/08 02:19:32;;;;;;;3.30;2.13;;;1.60;99.90;;;;;;7812099;28;20209;-92
2023/03/08 02:23:25;;;;;;;2.87;2.03;;;1.40;99.90;;;;;;7812073;28;20210;-92
2023/03/08 02:27:20;;;;;;;3.70;2.47;;;1.30;99.90;;;;;;7811960;28;20189;-92
2023/03/08 02:31:06;;;;;;;3.20;2.30;;;1.30;99.90;;;;;;7811860;28;20202;-92
2023/03/08 02:34:52;;;;;;;2.90;2.17;;;1.40;99.90;;;;;;7812265;28;20288;-92
2023/03/08 02:38:38;;;;;;;3.00;2.27;;;1.00;99.90;;;;;;7811958;28;20193;-92
2023/03/08 02:42:24;;;;;;;5.07;2.40;;;1.80;99.90;;;;;;7811458;28;20217;-92
2023/03/08 02:46:11;;;;;;;4.07;2.73;;;1.10;99.90;;;;;;7810898;28;20187;-92
2023/03/08 02:49:57;;;;;;;4.37;2.50;;;1.40;99.90;;;;;;7809950;28;20217;-92
2023/03/08 02:53:42;;;;;;;5.50;3.00;;;1.50;99.90;;;;;;7810139;28;20203;-93
2023/03/08 02:57:28;;;;;;;6.03;3.30;;;1.40;99.90;;;;;;7809212;28;20182;-92
2023/03/08 03:01:14;;;;;;;6.87;3.50;;;1.50;99.90;;;;;;7809356;28;20269;-92
2023/03/08 03:05:03;;;;;;;6.33;3.27;;;1.40;99.90;;;;;;7809943;28;20202;-92
2023/03/08 03:08:48;;;;;;;6.30;3.70;;;0.70;99.90;;;;;;7809495;28;20186;-91
2023/03/08 03:12:34;;;;;;;8.73;3.57;;;1.20;99.90;;;;;;7809293;28;20218;-92
2023/03/08 03:16:20;;;;;;;7.20;3.77;;;1.20;99.90;;;;;;7809373;28;20190;-91
2023/03/08 03:20:10;;;;;;;4.37;2.77;;;1.10;99.90;;;;;;7809400;28;20233;-92
2023/03/08 03:23:56;;;;;;;3.30;2.47;;;1.10;99.90;;;;;;7808228;28;20249;-93
2023/03/08 03:27:42;;;;;;;4.83;2.93;;;1.20;99.90;;;;;;7826531;28;20190;-94
2023/03/08 03:31:27;;;;;;;6.00;2.90;;;1.30;99.90;;;;;;7834219;28;20210;-91
2023/03/08 03:35:13;;;;;;;3.73;2.73;;;1.20;99.90;;;;;;7809547;28;20202;-92
2023/03/08 03:38:59;;;;;;;4.67;3.50;;;1.20;99.90;;;;;;7809384;28;20186;-92
2023/03/08 03:42:47;;;;;;;5.63;3.47;;;1.20;99.90;;;;;;7811368;28;20202;-93
2023/03/08 03:46:33;;;;;;;5.53;3.50;;;1.10;99.90;;;;;;7825917;28;20178;-92
2023/03/08 03:50:18;;;;;;;7.10;3.30;;;1.10;99.90;;;;;;7811531;28;20213;-92
2023/03/08 03:54:04;;;;;;;6.80;3.80;;;1.10;99.90;;;;;;7816548;28;20198;-93
2023/03/08 03:57:50;;;;;;;7.00;4.07;;;1.10;99.90;;;;;;7809532;28;20178;-91
2023/03/08 04:01:35;;;;;;;8.83;4.57;;;1.20;99.90;;;;;;7808419;28;20535;-91
2023/03/08 04:05:21;;;;;;;8.53;5.00;;;1.10;99.90;;;;;;7808289;28;20814;-92
2023/03/08 04:09:13;;;;;;;7.10;4.30;;;1.10;99.90;;;;;;7807180;28;20217;-92
2023/03/08 04:12:59;;;;;;;6.83;4.57;;;1.30;99.90;;;;;;7807303;28;20237;-91
2023/03/08 04:16:44;;;;;;;8.73;4.97;;;1.10;99.90;;;;;;7807331;28;20321;-92
2023/03/08 04:20:30;;;;;;;7.77;4.07;;;1.30;99.90;;;;;;7807239;28;20203;-92
2023/03/08 04:24:16;;;;;;;8.30;4.20;;;1.10;99.90;;;;;;7807166;28;20202;-92
2023/03/08 04:28:01;;;;;;;6.83;4.00;;;1.10;99.90;;;;;;7806925;28;20179;-91
2023/03/08 04:31:47;;;;;;;6.80;4.10;;;1.00;99.90;;;;;;7806795;28;20206;-92
2023/03/08 04:35:33;;;;;;;5.77;3.43;;;1.10;99.90;;;;;;7808606;28;20289;-91
2023/03/08 04:39:18;;;;;;;6.90;3.67;;;1.00;99.90;;;;;;7812694;28;20218;-92
2023/03/08 04:43:04;;;;;;;5.20;3.40;;;1.10;99.90;;;;;;7812535;28;20203;-92
2023/03/08 04:46:50;;;;;;;5.53;3.17;;;1.10;99.90;;;;;;7812292;28;20187;-91
2023/03/08 04:50:38;;;;;;;6.30;3.60;;;1.10;99.90;;;;;;7812109;28;20207;-91
2023/03/08 04:54:23;;;;;;;6.60;4.10;;;1.20;99.90;;;;;;7812016;28;20213;-92
2023/03/08 04:58:09;;;;;;;6.37;3.80;;;1.30;99.90;;;;;;7811811;28;20261;-92
2023/03/08 05:01:55;;;;;;;6.73;4.07;;;1.20;99.90;;;;;;7811622;28;20244;-91
2023/03/08 05:05:49;;;;;;;7.03;4.03;;;1.10;99.90;;;;;;7808823;28;20634;-93
2023/03/08 05:09:59;;;;;;;6.70;4.13;;;1.20;99.90;;;;;;7810663;28;20195;-92
2023/03/08 05:13:45;;;;;;;6.13;4.07;;;1.10;99.90;;;;;;7810440;28;20206;-92
2023/03/08 05:17:31;;;;;;;7.37;4.20;;;1.30;99.90;;;;;;7829608;28;20643;-92
2023/03/08 05:21:20;;;;;;;7.27;4.40;;;1.20;99.90;;;;;;7872585;28;20181;-92
2023/03/08 05:25:06;;;;;;;7.13;4.20;;;1.20;99.90;;;;;;7872878;28;20205;-92
2023/03/08 05:28:52;;;;;;;9.03;4.83;;;1.20;99.90;;;;;;7900770;28;20360;-94
2023/03/08 05:32:37;;;;;;;6.87;4.20;;;1.10;99.90;;;;;;7887771;28;20601;-91
2023/03/08 05:36:23;;;;;;;7.37;4.60;;;1.30;99.90;;;;;;7845281;28;20189;-90
2023/03/08 05:40:09;;;;;;;8.10;4.37;;;1.20;99.90;;;;;;7840559;28;20713;-89
2023/03/08 05:43:57;;;;;;;6.57;3.87;;;1.20;99.90;;;;;;7841638;28;20285;-90
2023/03/08 05:47:43;;;;;;;7.23;4.30;;;1.20;99.90;;;;;;7835330;28;20237;-91
2023/03/08 05:51:28;;;;;;;8.77;4.67;;;1.20;99.90;;;;;;7810206;28;20214;-92
2023/03/08 05:55:14;;;;;;;8.40;4.97;;;1.20;99.90;;;;;;7809957;28;20194;-91
2023/03/08 05:59:00;;;;;;;8.47;4.73;;;1.10;99.90;;;;;;7830187;28;20182;-92
2023/03/08 06:02:45;;;;;;;8.70;5.10;;;1.20;99.90;;;;;;7841650;28;20221;-91
2023/03/08 06:06:31;;;;;;;10.47;5.37;;;1.20;99.90;;;;;;7840840;28;20182;-92
2023/03/08 06:10:16;;;;;;;11.77;5.20;;;1.10;99.90;;;;;;7839300;28;20293;-92
2023/03/08 06:14:02;;;;;;;8.33;4.70;;;1.20;99.90;;;;;;7840100;28;20213;-92
2023/03/08 06:17:51;;;;;;;9.80;5.23;;;1.10;99.90;;;;;;7835315;28;20187;-82
2023/03/08 06:21:37;;;;;;;7.87;4.63;;;1.20;99.90;;;;;;7828276;28;20218;-91
2023/03/08 06:25:22;;;;;;;9.00;4.97;;;1.20;99.90;;;;;;7855041;28;20679;-90
2023/03/08 06:29:08;;;;;;;8.63;4.93;;;1.20;99.90;;;;;;7839238;28;20272;-91
2023/03/08 06:32:54;;;;;;;11.27;5.00;;;1.30;99.90;;;;;;7839335;28;20198;-92
2023/03/08 06:36:39;;;;;;;8.33;4.57;;;1.30;99.90;;;;;;7838886;28;20201;-91
2023/03/08 06:40:25;;;;;;;11.50;6.07;;;1.30;99.90;;;;;;7825292;28;20241;-91
2023/03/08 06:44:10;;;;;;;9.83;5.80;;;1.30;99.90;;;;;;7839287;28;20198;-92
2023/03/08 06:47:56;;;;;;;8.30;5.03;;;1.30;99.90;;;;;;7838360;28;20216;-92
2023/03/08 06:51:42;;;;;;;13.97;5.87;;;1.30;99.90;;;;;;7838780;28;20221;-91
2023/03/08 06:55:27;;;;;;;9.77;5.53;;;1.30;99.90;;;;;;7839046;28;20197;-91
2023/03/08 06:59:13;;;;;;;8.40;4.50;;;1.30;99.90;;;;;;7838693;28;20170;-92
2023/03/08 07:02:59;;;;;;;10.30;5.37;;;1.30;99.90;;;;;;7838642;28;20237;-90
2023/03/08 07:06:44;;;;;;;8.90;5.17;;;1.40;99.90;;;;;;7838119;28;20723;-90
2023/03/08 07:10:30;;;;;;;8.73;4.90;;;1.40;99.90;;;;;;7837847;28;20202;-91
2023/03/08 07:14:16;;;;;;;8.43;4.50;;;1.50;99.90;;;;;;7838513;28;20238;-91
2023/03/08 07:18:01;;;;;;;10.50;5.17;;;1.50;99.90;;;;;;7838333;28;20185;-91
2023/03/08 07:21:50;;;;;;;8.40;4.80;;;1.60;99.90;;;;;;7838289;28;20185;-90
2023/03/08 07:25:40;;;;;;;9.10;5.20;;;1.50;99.90;;;;;;7838114;28;20206;-92
2023/03/08 07:29:26;;;;;;;6.57;4.47;;;1.50;99.90;;;;;;7870466;28;20190;-94
2023/03/08 07:33:26;;;;;;;8.67;4.33;;;1.70;99.90;;;;;;7849871;28;20205;-91
2023/03/08 07:37:13;;;;;;;8.60;5.27;;;1.70;99.90;;;;;;7837827;28;20264;-91
2023/03/08 07:40:59;;;;;;;9.23;4.80;;;1.70;99.90;;;;;;7837882;28;20193;-91
2023/03/08 07:44:44;;;;;;;8.93;5.10;;;1.80;99.90;;;;;;7837951;28;20256;-91
2023/03/08 07:48:31;;;;;;;10.17;5.37;;;1.90;99.90;;;;;;7837005;28;20186;-91
2023/03/08 07:52:16;;;;;;;7.80;4.93;;;2.00;99.90;;;;;;7837357;28;20695;-91
2023/03/08 07:56:02;;;;;;;10.40;5.00;;;1.80;99.90;;;;;;7837205;28;20612;-91
2023/03/08 07:59:49;;;;;;;7.40;4.83;;;1.80;99.90;;;;;;7837484;28;20185;-91
2023/03/08 08:03:44;;;;;;;6.57;4.23;;;1.90;99.90;;;;;;7837377;28;20208;-91
2023/03/08 08:07:30;;;;;;;6.97;3.70;;;2.10;99.90;;;;;;7836978;28;20196;-91
2023/03/08 08:11:18;;;;;;;6.60;3.70;;;2.20;99.90;;;;;;7839691;28;20304;-92
2023/03/08 08:15:04;;;;;;;5.33;3.17;;;2.20;99.90;;;;;;7840415;28;20206;-90
2023/03/08 08:18:53;;;;;;;10.37;4.83;;;2.30;99.90;;;;;;7830212;28;20206;-91
2023/03/08 08:22:45;;;;;;;9.00;4.40;;;2.30;99.90;;;;;;7844397;28;20768;-91
2023/03/08 08:26:30;;;;;;;8.10;4.13;;;2.40;99.90;;;;;;7842786;28;20182;-90
2023/03/08 08:30:16;;;;;;;11.20;4.80;;;2.50;99.90;;;;;;7842403;28;20206;-90
2023/03/08 08:34:02;;;;;;;6.70;4.17;;;2.50;99.90;;;;;;7844967;28;20285;-91
2023/03/08 08:37:47;;;;;;;8.60;5.20;;;2.50;99.90;;;;;;7844177;28;20190;-90
2023/03/08 08:41:33;;;;;;;11.50;6.83;;;2.50;99.90;;;;;;7811814;28;20587;-91
2023/03/08 08:45:19;;;;;;;12.60;7.10;;;2.50;99.90;;;;;;7811738;28;20257;-91
2023/03/08 08:49:04;;;;;;;10.80;6.30;;;2.60;99.90;;;;;;7811783;28;20795;-90
2023/03/08 08:52:55;;;;;;;11.43;6.53;;;2.60;99.90;;;;;;7812388;28;20214;-91
2023/03/08 08:56:42;;;;;;;10.63;6.17;;;2.70;99.90;;;;;;7811655;28;20617;-91
2023/03/08 09:00:28;;;;;;;11.10;6.00;;;2.90;99.90;;;;;;7819349;28;20186;-90
2023/03/08 09:04:15;;;;;;;10.57;5.63;;;2.70;99.90;;;;;;7818166;28;20285;-91
2023/03/08 09:08:01;;;;;;;9.77;5.67;;;2.80;99.90;;;;;;7811116;28;20190;-90
2023/03/08 09:11:47;;;;;;;11.53;5.93;;;2.80;99.90;;;;;;7810464;28;20249;-90
2023/03/08 09:15:34;;;;;;;10.53;6.30;;;2.80;99.90;;;;;;7810613;28;20198;-90
2023/03/08 09:19:20;;;;;;;11.43;5.77;;;2.70;99.90;;;;;;7810599;28;20187;-91
2023/03/08 09:23:07;;;;;;;10.67;5.87;;;2.70;99.90;;;;;;7809135;28;20213;-91
2023/03/08 09:26:52;;;;;;;9.33;5.83;;;2.80;99.90;;;;;;7815610;28;20163;-92
2023/03/08 09:30:38;;;;;;;10.40;5.93;;;2.80;99.90;;;;;;7850552;28;20226;-90
2023/03/08 09:34:39;;;;;;;10.90;6.17;;;2.80;99.90;;;;;;7811986;28;20206;-91
2023/03/08 09:38:25;;;;;;;11.03;6.67;;;3.00;99.90;;;;;;7810138;28;20181;-91
2023/03/08 09:42:40;;;;;;;12.53;7.40;;;2.90;99.90;;;;;;7809828;28;20222;-89
2023/03/08 09:46:32;;;;;;;10.70;6.30;;;3.00;99.90;;;;;;7790226;28;20809;-89
2023/03/08 09:50:32;;;;;;;8.77;5.60;;;3.00;99.90;;;;;;7806762;28;20305;-89
2023/03/08 09:54:22;;;;;;;9.23;5.67;;;3.00;99.90;;;;;;7790169;28;20198;-90
2023/03/08 09:58:23;;;;;;;9.23;5.40;;;3.00;99.90;;;;;;7789880;28;20291;-90
2023/03/08 10:02:31;;;;;;;9.47;5.80;;;3.00;99.90;;;;;;7789756;28;20186;-90
2023/03/08 10:06:26;;;;;;;8.60;5.30;;;3.00;99.90;;;;;;7790009;28;20170;-91
2023/03/08 10:10:15;;;;;;;7.17;4.67;;;3.00;99.90;;;;;;7789542;28;20212;-91
2023/03/08 10:14:22;;;;;;;5.33;3.80;;;3.00;99.90;;;;;;7789735;28;20210;-90
2023/03/08 10:18:29;;;;;;;7.27;4.00;;;3.00;99.90;;;;;;7789471;28;20183;-90
2023/03/08 10:22:28;;;;;;;6.77;4.10;;;3.10;99.90;;;;;;7793212;28;20190;-90
2023/03/08 10:26:15;;;;;;;5.23;3.57;;;3.10;99.90;;;;;;7808650;28;20179;-90
2023/03/08 10:30:10;;;;;;;4.53;3.30;;;3.10;99.90;;;;;;7808520;28;20234;-90
2023/03/08 10:34:07;;;;;;;5.07;3.67;;;3.00;99.90;;;;;;7807957;28;20190;-90
2023/03/08 10:37:53;;;;;;;6.13;3.67;;;3.00;99.90;;;;;;7808460;28;20167;-91
2023/03/08 10:41:51;;;;;;;5.20;3.50;;;3.00;99.90;;;;;;7808123;28;20197;-91
2023/03/08 10:45:37;;;;;;;6.50;4.37;;;3.00;99.90;;;;;;7808033;28;20245;-90
2023/03/08 10:49:23;;;;;;;5.40;4.03;;;2.90;99.90;;;;;;7807893;28;20206;-90
2023/03/08 10:53:15;;;;;;;7.80;5.03;;;2.90;99.90;;;;;;7807799;28;20720;-91
2023/03/08 10:57:01;;;;;;;7.70;4.73;;;3.00;99.90;;;;;;7808008;28;20175;-91
2023/03/08 11:00:52;;;;;;;7.80;5.20;;;3.00;99.90;;;;;;7807849;28;20771;-91
2023/03/08 11:04:37;;;;;;;8.87;5.10;;;3.10;99.90;;;;;;7807607;28;20199;-90
2023/03/08 11:08:35;;;;;;;9.77;5.83;;;3.00;99.90;;;;;;7807772;28;20183;-90
2023/03/08 11:12:24;;;;;;;11.97;6.40;;;3.00;99.90;;;;;;7807467;28;20267;-90
2023/03/08 11:16:38;;;;;;;11.77;7.23;;;3.10;99.90;;;;;;7808970;28;20232;-84
2023/03/08 11:20:44;;;;;;;12.40;6.93;;;3.00;99.90;;;;;;7826256;28;20679;-85
2023/03/08 11:24:57;;;;;;;13.23;7.30;;;3.00;99.90;;;;;;7842736;28;20193;-85
2023/03/08 11:28:43;;;;;;;14.17;7.80;;;3.00;99.90;;;;;;7810517;28;20225;-90
2023/03/08 11:32:41;;;;;;;14.83;8.37;;;3.10;99.90;;;;;;7828716;28;20206;-92
2023/03/08 11:36:49;;;;;;;13.97;7.87;;;3.00;99.90;;;;;;7824246;28;20159;-92
2023/03/08 11:40:44;;;;;;;15.50;8.43;;;3.00;99.90;;;;;;7810096;28;20782;-94
2023/03/08 11:44:51;;;;;;;15.83;7.93;;;3.00;99.90;;;;;;7806837;28;20202;-90
2023/03/08 11:49:10;;;;;;;18.77;10.17;;;3.00;99.90;;;;;;7807141;28;20171;-90
2023/03/08 11:53:14;;;;;;;18.93;10.60;;;3.10;99.90;;;;;;7806708;28;20218;-91
2023/03/08 11:57:03;;;;;;;20.20;11.40;;;3.10;99.90;;;;;;7806637;28;20321;-91
2023/03/08 12:00:52;;;;;;;22.13;12.23;;;3.10;99.90;;;;;;7806818;28;20555;-90
2023/03/08 12:04:56;;;;;;;20.87;11.57;;;3.00;99.90;;;;;;7806670;28;20224;-89
2023/03/08 12:08:49;;;;;;;20.77;12.23;;;3.10;99.90;;;;;;7806459;28;20182;-91
2023/03/08 12:12:40;;;;;;;21.03;11.83;;;3.10;99.90;;;;;;7806271;28;20283;-91
2023/03/08 12:16:45;;;;;;;20.13;11.73;;;3.10;99.90;;;;;;7806714;28;20171;-91
2023/03/08 12:20:35;;;;;;;20.57;11.17;;;3.10;99.90;;;;;;7806412;28;20185;-91
2023/03/08 12:24:59;;;;;;;24.77;12.60;;;3.00;99.90;;;;;;7806149;28;20838;-90
2023/03/08 12:29:10;;;;;;;21.77;12.90;;;3.10;99.90;;;;;;7800428;28;20196;-90
2023/03/08 12:32:58;;;;;;;21.90;13.07;;;3.10;99.90;;;;;;7805308;28;20225;-91
2023/03/08 12:36:45;;;;;;;22.03;12.53;;;3.10;99.90;;;;;;7805386;28;20179;-92
2023/03/08 12:40:38;;;;;;;23.63;13.73;;;3.10;99.90;;;;;;7805553;28;20206;-91
2023/03/08 12:44:26;;;;;;;24.73;13.37;;;3.10;99.90;;;;;;7805119;28;20271;-91
2023/03/08 12:48:44;;;;;;;26.70;14.63;;;3.10;99.90;;;;;;7805417;28;20182;-91
2023/03/08 12:52:33;;;;;;;22.27;12.73;;;3.10;99.90;;;;;;7804958;28;20214;-91
2023/03/08 12:56:53;;;;;;;22.13;12.67;;;3.10;99.90;;;;;;7806138;28;20660;-90
2023/03/08 13:00:38;;;;;;;24.00;13.13;;;3.20;99.90;;;;;;7791337;28;20190;-91
2023/03/08 13:04:29;;;;;;;21.93;12.40;;;3.10;99.90;;;;;;7791540;28;20217;-91
2023/03/08 13:08:15;;;;;;;23.47;12.27;;;3.10;99.90;;;;;;7791524;28;20191;-91
2023/03/08 13:12:42;;;;;;;20.43;11.70;;;3.20;99.90;;;;;;7791681;28;20699;-91
2023/03/08 13:16:33;;;;;;;19.20;11.20;;;3.20;99.90;;;;;;7800333;28;20241;-90
2023/03/08 13:20:39;;;;;;;17.67;10.63;;;3.20;99.90;;;;;;7791406;28;20376;-90
2023/03/08 13:24:47;;;;;;;15.90;9.23;;;3.20;99.90;;;;;;7791436;28;20215;-91
2023/03/08 13:28:41;;;;;;;14.27;8.73;;;3.10;99.90;;;;;;7791080;28;20200;-91
2023/03/08 13:32:27;;;;;;;15.97;9.27;;;3.10;99.90;;;;;;7811543;28;20210;-93
2023/03/08 13:36:23;;;;;;;13.17;7.97;;;3.10;99.90;;;;;;7825047;28;20672;-91
2023/03/08 13:40:18;;;;;;;13.73;8.33;;;3.10;99.90;;;;;;7810222;28;20187;-91
2023/03/08 13:44:24;;;;;;;15.67;7.83;;;3.10;99.90;;;;;;7809384;28;20619;-91
2023/03/08 13:48:18;;;;;;;13.40;7.57;;;3.10;99.90;;;;;;7809432;28;20227;-90
2023/03/08 13:52:19;;;;;;;12.57;6.90;;;3.10;99.90;;;;;;7809828;28;20210;-91
2023/03/08 13:56:06;;;;;;;11.00;6.63;;;3.10;99.90;;;;;;7813177;28;20182;-90
2023/03/08 13:59:57;;;;;;;14.53;7.63;;;3.10;99.90;;;;;;7816486;28;20190;-91
2023/03/08 14:03:44;;;;;;;12.23;6.83;;;3.10;99.90;;;;;;7820671;28;20210;-91
2023/03/08 14:07:33;;;;;;;11.07;6.83;;;3.10;99.90;;;;;;7823850;28;20312;-90
2023/03/08 14:11:28;;;;;;;12.73;6.83;;;3.20;99.90;;;;;;7840220;28;20214;-91
2023/03/08 14:15:46;;;;;;;10.97;7.23;;;3.10;99.90;;;;;;7839451;28;20200;-92
2023/03/08 14:19:36;;;;;;;12.33;6.70;;;3.20;99.90;;;;;;7839916;28;20166;-90
2023/03/08 14:23:24;;;;;;;9.87;6.53;;;3.10;99.90;;;;;;7839812;28;20288;-89
2023/03/08 14:27:36;;;;;;;8.50;6.00;;;3.30;99.90;;;;;;7838550;28;20216;-91
2023/03/08 14:36:04;;;;;;;9.27;5.80;;;3.30;99.90;;;;;;7840380;28;20209;-90
2023/03/08 14:40:35;;;;;;;8.97;5.77;;;3.20;99.90;;;;;;7839328;28;20200;-92
2023/03/08 14:44:27;;;;;;;8.63;5.30;;;3.30;99.90;;;;;;7839069;28;20247;-91
2023/03/08 14:48:23;;;;;;;9.60;5.70;;;3.20;99.90;;;;;;7838821;28;20189;-91
2023/03/08 14:52:19;;;;;;;10.93;5.83;;;3.30;99.90;;;;;;7838984;28;20266;-90
2023/03/08 14:56:06;;;;;;;10.10;6.30;;;3.20;99.90;;;;;;7818804;28;20186;-91
2023/03/08 14:59:52;;;;;;;72.10;28.27;;;3.30;99.90;;;;;;7835577;28;20277;-90
2023/03/08 15:08:26;;;;;;;55.93;26.63;;;3.20;99.90;;;;;;7827355;28;20269;-90
2023/03/08 15:12:12;;;;;;;18.20;11.30;;;3.20;99.90;;;;;;7809735;28;20225;-85
2023/03/08 15:15:58;;;;;;;16.97;8.37;;;3.20;99.90;;;;;;7808566;28;20835;-91
2023/03/08 15:19:43;;;;;;;13.70;8.50;;;3.20;99.90;;;;;;7845512;28;20599;-91
2023/03/08 15:23:36;;;;;;;13.67;8.63;;;3.30;99.90;;;;;;7844041;28;20648;-91
2023/03/08 15:28:06;;;;;;;13.50;8.63;;;3.20;99.90;;;;;;7823828;28;20201;-90
2023/03/08 15:32:26;;;;;;;15.17;9.10;;;3.20;99.90;;;;;;7834677;28;20201;-92
2023/03/08 15:36:17;;;;;;;18.40;10.57;;;3.20;99.90;;;;;;7831714;28;20190;-90
2023/03/08 15:40:23;;;;;;;30.07;18.03;;;3.20;99.90;;;;;;7806921;28;20182;-91
2023/03/08 15:44:16;;;;;;;15.83;9.83;;;3.20;99.90;;;;;;7823667;28;20336;-91
2023/03/08 15:48:10;;;;;;;14.87;9.73;;;3.20;99.90;;;;;;7837305;28;20268;-90
2023/03/08 15:51:55;;;;;;;14.57;9.00;;;3.10;99.90;;;;;;7840985;28;20190;-90
2023/03/08 15:55:44;;;;;;;14.60;9.40;;;3.20;99.90;;;;;;7827868;28;20201;-87
2023/03/08 15:59:37;;;;;;;20.27;10.63;;;3.10;99.90;;;;;;7830137;28;20542;-87
2023/03/08 16:03:27;;;;;;;15.47;10.20;;;3.20;99.90;;;;;;7821410;28;20221;-90
2023/03/08 16:07:15;;;;;;;17.27;10.10;;;3.10;99.90;;;;;;7836620;28;20607;-90
2023/03/08 16:11:02;;;;;;;15.57;10.03;;;3.10;99.90;;;;;;7819619;28;20216;-90
2023/03/08 16:15:04;;;;;;;16.70;10.10;;;3.10;99.90;;;;;;7836667;28;20259;-91
2023/03/08 16:18:50;;;;;;;17.03;9.67;;;3.10;99.90;;;;;;7833440;28;20186;-91
2023/03/08 16:22:36;;;;;;;18.33;9.87;;;3.10;99.90;;;;;;7831226;28;20276;-90
2023/03/08 16:26:21;;;;;;;17.13;10.17;;;3.00;99.90;;;;;;7837173;28;20813;-90
2023/03/08 16:30:37;;;;;;;19.07;10.87;;;3.00;99.90;;;;;;7826383;28;20217;-90
2023/03/08 16:34:24;;;;;;;16.37;10.17;;;3.00;99.90;;;;;;7842751;28;20297;-91
2023/03/08 16:38:44;;;;;;;20.67;12.03;;;3.00;99.90;;;;;;7817172;28;20190;-91
2023/03/08 16:42:30;;;;;;;26.37;12.73;;;3.00;99.90;;;;;;7836170;28;20205;-90
2023/03/08 16:46:22;;;;;;;17.07;9.93;;;3.00;99.90;;;;;;7842607;28;20290;-90
2023/03/08 16:50:11;;;;;;;17.20;9.87;;;3.00;99.90;;;;;;7842471;28;20688;-90
2023/03/08 16:54:02;;;;;;;17.27;10.97;;;3.00;99.90;;;;;;7842361;28;20290;-91
2023/03/08 16:57:50;;;;;;;13.53;9.03;;;3.00;99.90;;;;;;7842877;28;20705;-90
2023/03/08 17:01:36;;;;;;;21.27;10.90;;;3.00;99.90;;;;;;7842652;28;20585;-91
2023/03/08 17:05:21;;;;;;;18.47;10.43;;;2.90;99.90;;;;;;7841839;28;20202;-90
2023/03/08 17:09:34;;;;;;;18.47;10.17;;;2.90;99.90;;;;;;7841509;28;20542;-90
2023/03/08 17:13:20;;;;;;;24.47;12.47;;;3.00;99.90;;;;;;7823201;28;20209;-88
2023/03/08 17:17:06;;;;;;;16.77;10.10;;;2.90;99.90;;;;;;7836999;28;20790;-90
2023/03/08 17:21:04;;;;;;;14.47;9.47;;;2.90;99.90;;;;;;7840415;28;20297;-90
2023/03/08 17:24:50;;;;;;;14.50;9.13;;;2.90;99.90;;;;;;7841507;28;20213;-90
2023/03/08 17:28:37;;;;;;;15.00;8.80;;;3.00;99.90;;;;;;7831994;28;20237;-91
2023/03/08 17:37:10;;;;;;;12.77;8.10;;;2.90;99.90;;;;;;7827888;28;20167;-91
2023/03/08 17:40:57;;;;;;;13.87;8.90;;;2.90;99.90;;;;;;7811142;28;20202;-90
2023/03/08 17:44:43;;;;;;;14.50;9.53;;;2.80;99.90;;;;;;7808766;28;20191;-90
2023/03/08 17:48:32;;;;;;;14.03;8.97;;;2.90;99.90;;;;;;7809863;28;20183;-90
2023/03/08 17:52:20;;;;;;;13.43;9.47;;;2.90;99.90;;;;;;7840173;28;20221;-90
2023/03/08 17:56:12;;;;;;;15.37;9.73;;;2.90;99.90;;;;;;7840602;28;20261;-91
2023/03/08 17:59:57;;;;;;;15.93;9.60;;;2.90;99.90;;;;;;7840387;28;20261;-90
2023/03/08 18:03:44;;;;;;;14.67;9.67;;;2.90;99.90;;;;;;7840715;28;20201;-91
2023/03/08 18:07:29;;;;;;;16.60;10.03;;;2.90;99.90;;;;;;7825621;28;20684;-91
2023/03/08 18:11:15;;;;;;;15.63;10.03;;;2.80;99.90;;;;;;7810692;28;20714;-91
2023/03/08 18:15:18;;;;;;;16.17;9.57;;;2.80;99.90;;;;;;7839975;28;20194;-91
2023/03/08 18:19:05;;;;;;;16.20;9.67;;;2.80;99.90;;;;;;7839768;28;20190;-91
2023/03/08 18:22:54;;;;;;;15.83;9.53;;;2.90;99.90;;;;;;7839636;28;20320;-91
2023/03/08 18:26:50;;;;;;;16.53;9.80;;;3.00;99.90;;;;;;7840996;28;20258;-91
2023/03/08 18:31:24;;;;;;;17.80;10.07;;;2.90;99.90;;;;;;7832706;28;20202;-90
2023/03/08 18:35:18;;;;;;;15.17;9.30;;;2.90;99.90;;;;;;7828345;28;20201;-91
2023/03/08 18:39:20;;;;;;;16.87;9.83;;;3.00;99.90;;;;;;7834575;28;20177;-90
2023/03/08 18:43:08;;;;;;;15.57;10.03;;;3.00;99.90;;;;;;7839164;28;20208;-90
2023/03/08 18:51:38;;;;;;;18.17;10.93;;;2.90;99.90;;;;;;7840326;28;20676;-90
2023/03/08 18:55:26;;;;;;;17.97;10.20;;;2.90;99.90;;;;;;7823804;28;20252;-90
2023/03/08 18:59:12;;;;;;;15.47;9.97;;;2.90;99.90;;;;;;7838314;28;20258;-91
2023/03/08 19:03:06;;;;;;;14.53;9.60;;;2.90;99.90;;;;;;7841623;28;20312;-90
2023/03/08 19:06:59;;;;;;;19.17;10.40;;;2.70;99.90;;;;;;7852472;28;20666;-90
2023/03/08 19:10:54;;;;;;;15.37;9.60;;;2.80;99.90;;;;;;7838729;28;20245;-90
2023/03/08 19:15:18;;;;;;;16.67;10.07;;;2.90;99.90;;;;;;7838489;28;20328;-92
2023/03/08 19:19:07;;;;;;;16.33;9.80;;;2.90;99.90;;;;;;7838580;28;20178;-91
2023/03/08 19:22:53;;;;;;;15.03;9.53;;;2.90;99.90;;;;;;7838497;28;20209;-91
2023/03/08 19:26:41;;;;;;;16.23;9.90;;;2.90;99.90;;;;;;7838624;28;20182;-90
2023/03/08 19:30:27;;;;;;;14.77;9.27;;;2.90;99.90;;;;;;7845974;28;20217;-91
2023/03/08 19:34:13;;;;;;;14.33;8.77;;;2.80;99.90;;;;;;7873121;28;20301;-90
2023/03/08 19:38:03;;;;;;;15.77;10.00;;;2.90;99.90;;;;;;7822832;28;20193;-90
2023/03/08 19:41:55;;;;;;;15.07;9.30;;;2.80;99.90;;;;;;7817262;28;20251;-89
2023/03/08 19:45:52;;;;;;;17.60;9.90;;;2.90;99.90;;;;;;7821279;28;20222;-90
2023/03/08 19:49:38;;;;;;;15.07;9.57;;;2.90;99.90;;;;;;7823555;28;20174;-91
2023/03/08 19:53:26;;;;;;;15.60;9.20;;;2.90;99.90;;;;;;7823326;28;20197;-90
2023/03/08 19:57:12;;;;;;;15.97;10.20;;;2.80;99.90;;;;;;7823603;28;20167;-90
2023/03/08 20:01:07;;;;;;;17.60;10.70;;;2.80;99.90;;;;;;7809582;28;20178;-90
2023/03/08 20:04:52;;;;;;;18.07;10.63;;;2.90;99.90;;;;;;7837178;28;20280;-90
2023/03/08 20:08:39;;;;;;;18.63;10.63;;;2.90;99.90;;;;;;7842407;28;20652;-91
2023/03/08 20:12:24;;;;;;;18.43;11.33;;;2.90;99.90;;;;;;7841010;28;20654;-90
2023/03/08 20:16:10;;;;;;;22.73;12.10;;;2.80;99.90;;;;;;7833792;28;20170;-91
2023/03/08 20:19:56;;;;;;;17.80;10.37;;;2.80;99.90;;;;;;7844796;28;20542;-90
2023/03/08 20:23:41;;;;;;;17.67;10.83;;;2.90;99.90;;;;;;7835712;28;20260;-91
2023/03/08 20:27:31;;;;;;;19.07;11.03;;;3.00;99.90;;;;;;7811656;28;20174;-91